sensor_id;sensor_type;location;lat;lon;timestamp;temperature;humidity
11005;DHT22;5555;59.622;16.556;2023-02-19T00:01:15;0.10;99.90
11005;DHT22;5555;59.622;16.556;2023-02-19T00:03:42;0.00;99.90
11005;DHT22;5555;59.622;16.556;2023-02-19T00:06:09;0.10;99.90
11005;DHT22;5555;59.622;16.556;2023-02-19T00:08:36;0.10;99.90
11005;DHT22;5555;59.622;16.556;2023-02-19T00:11:07;0.20;99.90
11005;DHT22;5555;59.622;16.556;2023-02-19T00:13:39;0.20;99.90
11005;DHT22;5555;59.622;16.556;2023-02-19T00:16:07;0.20;99.90
11005;DHT22;5555;59.622;16.556;2023-02-19T00:18:33;0.20;99.90
11005;DHT22;5555;59.622;16.556;2023-02-19T00:20:59;0.30;99.90
11005;DHT22;5555;59.622;16.556;2023-02-19T00:23:24;0.20;99.90
11005;DHT22;5555;59.622;16.556;2023-02-19T00:25:51;0.20;99.90
11005;DHT22;5555;59.622;16.556;2023-02-19T00:28:17;0.20;99.90
11005;DHT22;5555;59.622;16.556;2023-02-19T00:30:42;0.20;99.90
11005;DHT22;5555;59.622;16.556;2023-02-19T00:33:08;0.20;99.90
11005;DHT22;5555;59.622;16.556;2023-02-19T00:35:34;0.20;99.90
11005;DHT22;5555;59.622;16.556;2023-02-19T00:38:00;0.10;99.90
11005;DHT22;5555;59.622;16.556;2023-02-19T00:40:26;0.10;99.90
11005;DHT22;5555;59.622;16.556;2023-02-19T00:42:52;0.20;99.90
11005;DHT22;5555;59.622;16.556;2023-02-19T00:45:17;0.20;99.90
11005;DHT22;5555;59.622;16.556;2023-02-19T00:47:43;0.30;99.90
11005;DHT22;5555;59.622;16.556;2023-02-19T00:50:09;0.30;99.90
11005;DHT22;5555;59.622;16.556;2023-02-19T00:52:35;0.30;99.90
11005;DHT22;5555;59.622;16.556;2023-02-19T00:55:01;0.30;99.90
11005;DHT22;5555;59.622;16.556;2023-02-19T00:57:26;0.40;99.90
11005;DHT22;5555;59.622;16.556;2023-02-19T00:59:52;0.50;99.90
11005;DHT22;5555;59.622;16.556;2023-02-19T01:02:18;0.50;99.90
11005;DHT22;5555;59.622;16.556;2023-02-19T01:04:43;0.40;99.90
11005;DHT22;5555;59.622;16.556;2023-02-19T01:07:09;0.50;99.90
11005;DHT22;5555;59.622;16.556;2023-02-19T01:09:35;0.50;99.90
11005;DHT22;5555;59.622;16.556;2023-02-19T01:12:03;0.40;99.90
11005;DHT22;5555;59.622;16.556;2023-02-19T01:14:28;0.40;99.90
11005;DHT22;5555;59.622;16.556;2023-02-19T01:16:54;0.40;99.90
11005;DHT22;5555;59.622;16.556;2023-02-19T01:19:20;0.40;99.90
11005;DHT22;5555;59.622;16.556;2023-02-19T01:21:45;0.40;99.90
11005;DHT22;5555;59.622;16.556;2023-02-19T01:24:11;0.40;99.90
11005;DHT22;5555;59.622;16.556;2023-02-19T01:26:36;0.30;99.90
11005;DHT22;5555;59.622;16.556;2023-02-19T01:29:02;0.30;99.90
11005;DHT22;5555;59.622;16.556;2023-02-19T01:31:29;0.20;99.90
11005;DHT22;5555;59.622;16.556;2023-02-19T01:33:59;0.20;99.90
11005;DHT22;5555;59.622;16.556;2023-02-19T01:36:26;0.20;99.90
11005;DHT22;5555;59.622;16.556;2023-02-19T01:38:52;0.20;99.90
11005;DHT22;5555;59.622;16.556;2023-02-19T01:41:21;0.10;99.90
11005;DHT22;5555;59.622;16.556;2023-02-19T01:46:26;0.10;99.90
11005;DHT22;5555;59.622;16.556;2023-02-19T01:48:53;0.20;99.90
11005;DHT22;5555;59.622;16.556;2023-02-19T01:51:20;0.10;99.90
11005;DHT22;5555;59.622;16.556;2023-02-19T01:53:50;0.10;99.90
11005;DHT22;5555;59.622;16.556;2023-02-19T01:56:18;0.10;99.90
11005;DHT22;5555;59.622;16.556;2023-02-19T01:58:45;0.10;99.90
11005;DHT22;5555;59.622;16.556;2023-02-19T02:01:11;0.00;99.90
11005;DHT22;5555;59.622;16.556;2023-02-19T02:03:39;0.00;99.90
11005;DHT22;5555;59.622;16.556;2023-02-19T02:06:11;0.00;99.90
11005;DHT22;5555;59.622;16.556;2023-02-19T02:08:39;-0.10;99.90
11005;DHT22;5555;59.622;16.556;2023-02-19T02:11:23;-0.10;99.90
11005;DHT22;5555;59.622;16.556;2023-02-19T02:13:50;-0.10;99.90
11005;DHT22;5555;59.622;16.556;2023-02-19T02:16:43;0.00;99.90
11005;DHT22;5555;59.622;16.556;2023-02-19T02:19:35;-0.10;99.90
11005;DHT22;5555;59.622;16.556;2023-02-19T02:22:28;0.00;99.90
11005;DHT22;5555;59.622;16.556;2023-02-19T02:25:16;0.00;99.90
11005;DHT22;5555;59.622;16.556;2023-02-19T02:30:53;-0.10;99.90
11005;DHT22;5555;59.622;16.556;2023-02-19T02:33:41;-0.10;99.90
11005;DHT22;5555;59.622;16.556;2023-02-19T02:36:26;-0.10;99.90
11005;DHT22;5555;59.622;16.556;2023-02-19T02:38:53;-0.10;99.90
11005;DHT22;5555;59.622;16.556;2023-02-19T02:41:20;-0.20;99.90
11005;DHT22;5555;59.622;16.556;2023-02-19T02:43:46;-0.10;99.90
11005;DHT22;5555;59.622;16.556;2023-02-19T02:46:25;-0.10;99.90
11005;DHT22;5555;59.622;16.556;2023-02-19T02:48:56;-0.20;99.90
11005;DHT22;5555;59.622;16.556;2023-02-19T02:51:29;-0.20;99.90
11005;DHT22;5555;59.622;16.556;2023-02-19T02:54:17;-0.10;99.90
11005;DHT22;5555;59.622;16.556;2023-02-19T02:57:05;-0.10;99.90
11005;DHT22;5555;59.622;16.556;2023-02-19T02:59:33;-0.10;99.90
11005;DHT22;5555;59.622;16.556;2023-02-19T03:02:13;-0.20;99.90
11005;DHT22;5555;59.622;16.556;2023-02-19T03:04:47;-0.20;99.90
11005;DHT22;5555;59.622;16.556;2023-02-19T03:10:14;-0.10;99.90
11005;DHT22;5555;59.622;16.556;2023-02-19T03:12:44;-0.10;99.90
11005;DHT22;5555;59.622;16.556;2023-02-19T03:15:37;-0.10;99.90
11005;DHT22;5555;59.622;16.556;2023-02-19T03:18:24;-0.10;99.90
11005;DHT22;5555;59.622;16.556;2023-02-19T03:21:10;-0.10;99.90
11005;DHT22;5555;59.622;16.556;2023-02-19T03:23:36;-0.10;99.90
11005;DHT22;5555;59.622;16.556;2023-02-19T03:26:23;-0.10;99.90
11005;DHT22;5555;59.622;16.556;2023-02-19T03:28:50;-0.20;99.90
11005;DHT22;5555;59.622;16.556;2023-02-19T03:31:37;-0.10;99.90
11005;DHT22;5555;59.622;16.556;2023-02-19T03:34:09;-0.20;99.90
11005;DHT22;5555;59.622;16.556;2023-02-19T03:36:43;-0.10;99.90
11005;DHT22;5555;59.622;16.556;2023-02-19T03:39:13;-0.10;99.90
11005;DHT22;5555;59.622;16.556;2023-02-19T03:41:56;-0.10;99.90
11005;DHT22;5555;59.622;16.556;2023-02-19T03:47:26;-0.10;99.90
11005;DHT22;5555;59.622;16.556;2023-02-19T03:52:36;-0.10;99.90
11005;DHT22;5555;59.622;16.556;2023-02-19T04:00:41;-0.10;99.90
11005;DHT22;5555;59.622;16.556;2023-02-19T04:03:19;-0.10;99.90
11005;DHT22;5555;59.622;16.556;2023-02-19T04:05:49;-0.10;99.90
11005;DHT22;5555;59.622;16.556;2023-02-19T04:08:18;-0.20;99.90
11005;DHT22;5555;59.622;16.556;2023-02-19T04:10:46;-0.20;99.90
11005;DHT22;5555;59.622;16.556;2023-02-19T04:13:21;-0.20;99.90
11005;DHT22;5555;59.622;16.556;2023-02-19T04:15:49;-0.20;99.90
11005;DHT22;5555;59.622;16.556;2023-02-19T04:18:24;-0.20;99.90
11005;DHT22;5555;59.622;16.556;2023-02-19T04:20:51;-0.20;99.90
11005;DHT22;5555;59.622;16.556;2023-02-19T04:23:20;-0.20;99.90
11005;DHT22;5555;59.622;16.556;2023-02-19T04:25:49;-0.10;99.90
11005;DHT22;5555;59.622;16.556;2023-02-19T04:28:17;-0.20;99.90
11005;DHT22;5555;59.622;16.556;2023-02-19T04:30:43;-0.30;99.90
11005;DHT22;5555;59.622;16.556;2023-02-19T04:33:09;-0.20;99.90
11005;DHT22;5555;59.622;16.556;2023-02-19T04:35:34;-0.20;99.90
11005;DHT22;5555;59.622;16.556;2023-02-19T04:38:00;-0.20;99.90
11005;DHT22;5555;59.622;16.556;2023-02-19T04:40:26;-0.20;99.90
11005;DHT22;5555;59.622;16.556;2023-02-19T04:42:51;-0.20;99.90
11005;DHT22;5555;59.622;16.556;2023-02-19T04:45:17;-0.30;99.90
11005;DHT22;5555;59.622;16.556;2023-02-19T04:47:42;-0.20;99.90
11005;DHT22;5555;59.622;16.556;2023-02-19T04:50:08;-0.30;99.90
11005;DHT22;5555;59.622;16.556;2023-02-19T04:52:34;-0.30;99.90
11005;DHT22;5555;59.622;16.556;2023-02-19T04:55:00;-0.30;99.90
11005;DHT22;5555;59.622;16.556;2023-02-19T04:57:25;-0.30;99.90
11005;DHT22;5555;59.622;16.556;2023-02-19T04:59:51;-0.30;99.90
11005;DHT22;5555;59.622;16.556;2023-02-19T05:02:17;-0.30;99.90
11005;DHT22;5555;59.622;16.556;2023-02-19T05:04:43;-0.20;99.90
11005;DHT22;5555;59.622;16.556;2023-02-19T05:07:08;-0.30;99.90
11005;DHT22;5555;59.622;16.556;2023-02-19T05:09:34;-0.20;99.90
11005;DHT22;5555;59.622;16.556;2023-02-19T05:12:00;-0.20;99.90
11005;DHT22;5555;59.622;16.556;2023-02-19T05:14:25;-0.20;99.90
11005;DHT22;5555;59.622;16.556;2023-02-19T05:16:51;-0.30;99.90
11005;DHT22;5555;59.622;16.556;2023-02-19T05:19:17;-0.30;99.90
11005;DHT22;5555;59.622;16.556;2023-02-19T05:21:42;-0.20;99.90
11005;DHT22;5555;59.622;16.556;2023-02-19T05:24:08;-0.20;99.90
11005;DHT22;5555;59.622;16.556;2023-02-19T05:26:34;-0.20;99.90
11005;DHT22;5555;59.622;16.556;2023-02-19T05:29:00;-0.30;99.90
11005;DHT22;5555;59.622;16.556;2023-02-19T05:31:25;-0.30;99.90
11005;DHT22;5555;59.622;16.556;2023-02-19T05:33:51;-0.20;99.90
11005;DHT22;5555;59.622;16.556;2023-02-19T05:36:20;-0.30;99.90
11005;DHT22;5555;59.622;16.556;2023-02-19T05:38:46;-0.30;99.90
11005;DHT22;5555;59.622;16.556;2023-02-19T05:41:17;-0.30;99.90
11005;DHT22;5555;59.622;16.556;2023-02-19T05:43:44;-0.30;99.90
11005;DHT22;5555;59.622;16.556;2023-02-19T05:46:11;-0.30;99.90
11005;DHT22;5555;59.622;16.556;2023-02-19T05:48:37;-0.30;99.90
11005;DHT22;5555;59.622;16.556;2023-02-19T05:51:05;-0.30;99.90
11005;DHT22;5555;59.622;16.556;2023-02-19T05:53:31;-0.30;99.90
11005;DHT22;5555;59.622;16.556;2023-02-19T05:55:57;-0.30;99.90
11005;DHT22;5555;59.622;16.556;2023-02-19T05:58:22;-0.30;99.90
11005;DHT22;5555;59.622;16.556;2023-02-19T06:00:48;-0.30;99.90
11005;DHT22;5555;59.622;16.556;2023-02-19T06:03:14;-0.40;99.90
11005;DHT22;5555;59.622;16.556;2023-02-19T06:05:39;-0.40;99.90
11005;DHT22;5555;59.622;16.556;2023-02-19T06:08:05;-0.40;99.90
11005;DHT22;5555;59.622;16.556;2023-02-19T06:10:31;-0.40;99.90
11005;DHT22;5555;59.622;16.556;2023-02-19T06:12:57;-0.40;99.90
11005;DHT22;5555;59.622;16.556;2023-02-19T06:15:22;-0.40;99.90
11005;DHT22;5555;59.622;16.556;2023-02-19T06:17:48;-0.40;99.90
11005;DHT22;5555;59.622;16.556;2023-02-19T06:20:14;-0.50;99.90
11005;DHT22;5555;59.622;16.556;2023-02-19T06:22:40;-0.40;99.90
11005;DHT22;5555;59.622;16.556;2023-02-19T06:25:06;-0.50;99.90
11005;DHT22;5555;59.622;16.556;2023-02-19T06:27:36;-0.50;99.90
11005;DHT22;5555;59.622;16.556;2023-02-19T06:30:02;-0.40;99.90
11005;DHT22;5555;59.622;16.556;2023-02-19T06:32:27;-0.40;99.90
11005;DHT22;5555;59.622;16.556;2023-02-19T06:34:53;-0.40;99.90
11005;DHT22;5555;59.622;16.556;2023-02-19T06:37:18;-0.40;99.90
11005;DHT22;5555;59.622;16.556;2023-02-19T06:39:44;-0.50;99.90
11005;DHT22;5555;59.622;16.556;2023-02-19T06:42:10;-0.50;99.90
11005;DHT22;5555;59.622;16.556;2023-02-19T06:44:35;-0.50;99.90
11005;DHT22;5555;59.622;16.556;2023-02-19T06:47:01;-0.40;99.90
11005;DHT22;5555;59.622;16.556;2023-02-19T06:49:27;-0.40;99.90
11005;DHT22;5555;59.622;16.556;2023-02-19T06:51:52;-0.40;99.90
11005;DHT22;5555;59.622;16.556;2023-02-19T06:54:18;-0.40;99.90
11005;DHT22;5555;59.622;16.556;2023-02-19T06:56:43;-0.40;99.90
11005;DHT22;5555;59.622;16.556;2023-02-19T06:59:12;-0.30;99.90
11005;DHT22;5555;59.622;16.556;2023-02-19T07:01:39;-0.40;99.90
11005;DHT22;5555;59.622;16.556;2023-02-19T07:04:05;-0.30;99.90
11005;DHT22;5555;59.622;16.556;2023-02-19T07:06:33;-0.30;99.90
11005;DHT22;5555;59.622;16.556;2023-02-19T07:08:59;-0.30;99.90
11005;DHT22;5555;59.622;16.556;2023-02-19T07:11:26;-0.30;99.90
11005;DHT22;5555;59.622;16.556;2023-02-19T07:13:58;-0.30;99.90
11005;DHT22;5555;59.622;16.556;2023-02-19T07:16:24;-0.20;99.90
11005;DHT22;5555;59.622;16.556;2023-02-19T07:18:50;-0.20;99.90
11005;DHT22;5555;59.622;16.556;2023-02-19T07:21:16;-0.20;99.90
11005;DHT22;5555;59.622;16.556;2023-02-19T07:23:42;-0.10;99.90
11005;DHT22;5555;59.622;16.556;2023-02-19T07:26:13;-0.10;99.90
11005;DHT22;5555;59.622;16.556;2023-02-19T07:28:43;-0.10;99.90
11005;DHT22;5555;59.622;16.556;2023-02-19T07:31:09;-0.10;99.90
11005;DHT22;5555;59.622;16.556;2023-02-19T07:33:35;-0.10;99.90
11005;DHT22;5555;59.622;16.556;2023-02-19T07:36:01;0.00;99.90
11005;DHT22;5555;59.622;16.556;2023-02-19T07:38:27;0.00;99.90
11005;DHT22;5555;59.622;16.556;2023-02-19T07:40:58;0.00;99.90
11005;DHT22;5555;59.622;16.556;2023-02-19T07:43:25;0.00;99.90
11005;DHT22;5555;59.622;16.556;2023-02-19T07:45:51;0.00;99.90
11005;DHT22;5555;59.622;16.556;2023-02-19T07:48:17;0.10;99.90
11005;DHT22;5555;59.622;16.556;2023-02-19T07:50:53;0.10;99.90
11005;DHT22;5555;59.622;16.556;2023-02-19T07:53:20;0.20;99.90
11005;DHT22;5555;59.622;16.556;2023-02-19T07:55:45;0.20;99.90
11005;DHT22;5555;59.622;16.556;2023-02-19T07:58:11;0.20;99.90
11005;DHT22;5555;59.622;16.556;2023-02-19T08:00:37;0.20;99.90
11005;DHT22;5555;59.622;16.556;2023-02-19T08:03:03;0.30;99.90
11005;DHT22;5555;59.622;16.556;2023-02-19T08:05:33;0.30;99.90
11005;DHT22;5555;59.622;16.556;2023-02-19T08:08:00;0.30;99.90
11005;DHT22;5555;59.622;16.556;2023-02-19T08:10:26;0.40;99.90
11005;DHT22;5555;59.622;16.556;2023-02-19T08:13:13;0.40;99.90
11005;DHT22;5555;59.622;16.556;2023-02-19T08:15:51;0.40;99.90
11005;DHT22;5555;59.622;16.556;2023-02-19T08:18:20;0.50;99.90
11005;DHT22;5555;59.622;16.556;2023-02-19T08:20:46;0.50;99.90
11005;DHT22;5555;59.622;16.556;2023-02-19T08:23:12;0.60;99.90
11005;DHT22;5555;59.622;16.556;2023-02-19T08:25:38;0.60;99.90
11005;DHT22;5555;59.622;16.556;2023-02-19T08:28:05;0.60;99.90
11005;DHT22;5555;59.622;16.556;2023-02-19T08:30:32;0.70;99.90
11005;DHT22;5555;59.622;16.556;2023-02-19T08:32:59;0.70;99.90
11005;DHT22;5555;59.622;16.556;2023-02-19T08:35:25;0.80;99.90
11005;DHT22;5555;59.622;16.556;2023-02-19T08:37:57;0.80;99.90
11005;DHT22;5555;59.622;16.556;2023-02-19T08:40:24;0.90;99.90
11005;DHT22;5555;59.622;16.556;2023-02-19T08:42:50;0.90;99.90
11005;DHT22;5555;59.622;16.556;2023-02-19T08:45:17;0.90;99.90
11005;DHT22;5555;59.622;16.556;2023-02-19T08:47:43;1.00;99.90
11005;DHT22;5555;59.622;16.556;2023-02-19T08:50:09;1.00;99.90
11005;DHT22;5555;59.622;16.556;2023-02-19T08:52:35;1.00;99.90
11005;DHT22;5555;59.622;16.556;2023-02-19T08:55:01;1.00;99.90
11005;DHT22;5555;59.622;16.556;2023-02-19T08:57:27;1.10;99.90
11005;DHT22;5555;59.622;16.556;2023-02-19T08:59:57;1.10;99.90
11005;DHT22;5555;59.622;16.556;2023-02-19T09:02:23;1.10;99.90
11005;DHT22;5555;59.622;16.556;2023-02-19T09:04:49;1.10;99.90
11005;DHT22;5555;59.622;16.556;2023-02-19T09:07:15;1.20;99.90
11005;DHT22;5555;59.622;16.556;2023-02-19T09:09:41;1.20;99.90
11005;DHT22;5555;59.622;16.556;2023-02-19T09:12:09;1.30;99.90
11005;DHT22;5555;59.622;16.556;2023-02-19T09:14:36;1.30;99.90
11005;DHT22;5555;59.622;16.556;2023-02-19T09:17:03;1.30;99.90
11005;DHT22;5555;59.622;16.556;2023-02-19T09:19:29;1.30;99.90
11005;DHT22;5555;59.622;16.556;2023-02-19T09:21:54;1.40;99.90
11005;DHT22;5555;59.622;16.556;2023-02-19T09:24:20;1.50;99.90
11005;DHT22;5555;59.622;16.556;2023-02-19T09:26:50;1.60;99.90
11005;DHT22;5555;59.622;16.556;2023-02-19T09:29:16;1.60;99.90
11005;DHT22;5555;59.622;16.556;2023-02-19T09:31:42;1.70;99.90
11005;DHT22;5555;59.622;16.556;2023-02-19T09:34:08;1.70;99.90
11005;DHT22;5555;59.622;16.556;2023-02-19T09:36:34;1.80;99.90
11005;DHT22;5555;59.622;16.556;2023-02-19T09:39:00;1.90;99.90
11005;DHT22;5555;59.622;16.556;2023-02-19T09:41:31;1.90;99.90
11005;DHT22;5555;59.622;16.556;2023-02-19T09:44:00;1.90;99.90
11005;DHT22;5555;59.622;16.556;2023-02-19T09:46:39;1.90;99.90
11005;DHT22;5555;59.622;16.556;2023-02-19T09:49:14;1.90;99.90
11005;DHT22;5555;59.622;16.556;2023-02-19T09:51:46;2.00;99.90
11005;DHT22;5555;59.622;16.556;2023-02-19T09:54:19;2.00;99.90
11005;DHT22;5555;59.622;16.556;2023-02-19T09:56:46;1.90;99.90
11005;DHT22;5555;59.622;16.556;2023-02-19T09:59:20;2.00;99.90
11005;DHT22;5555;59.622;16.556;2023-02-19T10:01:47;2.00;99.90
11005;DHT22;5555;59.622;16.556;2023-02-19T10:04:13;2.00;99.90
11005;DHT22;5555;59.622;16.556;2023-02-19T10:06:39;2.00;99.90
11005;DHT22;5555;59.622;16.556;2023-02-19T10:09:16;2.00;99.90
11005;DHT22;5555;59.622;16.556;2023-02-19T10:11:43;2.10;99.90
11005;DHT22;5555;59.622;16.556;2023-02-19T10:16:45;2.20;99.90
11005;DHT22;5555;59.622;16.556;2023-02-19T10:19:13;2.30;99.90
11005;DHT22;5555;59.622;16.556;2023-02-19T10:21:40;2.20;99.90
11005;DHT22;5555;59.622;16.556;2023-02-19T10:24:07;2.30;99.90
11005;DHT22;5555;59.622;16.556;2023-02-19T10:26:35;2.30;99.90
11005;DHT22;5555;59.622;16.556;2023-02-19T10:29:04;2.30;99.90
11005;DHT22;5555;59.622;16.556;2023-02-19T10:31:31;2.30;99.90
11005;DHT22;5555;59.622;16.556;2023-02-19T10:33:59;2.40;99.90
11005;DHT22;5555;59.622;16.556;2023-02-19T10:36:36;2.40;99.90
11005;DHT22;5555;59.622;16.556;2023-02-19T10:39:22;2.40;99.90
11005;DHT22;5555;59.622;16.556;2023-02-19T10:41:52;2.40;99.90
11005;DHT22;5555;59.622;16.556;2023-02-19T10:44:25;2.50;99.90
11005;DHT22;5555;59.622;16.556;2023-02-19T10:46:57;2.50;99.90
11005;DHT22;5555;59.622;16.556;2023-02-19T10:49:35;2.50;99.90
11005;DHT22;5555;59.622;16.556;2023-02-19T10:52:13;2.60;99.90
11005;DHT22;5555;59.622;16.556;2023-02-19T10:54:48;2.50;99.90
11005;DHT22;5555;59.622;16.556;2023-02-19T10:59:48;2.60;99.90
11005;DHT22;5555;59.622;16.556;2023-02-19T11:02:17;2.70;99.90
11005;DHT22;5555;59.622;16.556;2023-02-19T11:07:35;2.70;99.90
11005;DHT22;5555;59.622;16.556;2023-02-19T11:10:02;2.80;99.90
11005;DHT22;5555;59.622;16.556;2023-02-19T11:12:30;2.80;99.90
11005;DHT22;5555;59.622;16.556;2023-02-19T11:17:53;2.80;99.90
11005;DHT22;5555;59.622;16.556;2023-02-19T11:20:19;3.00;99.90
11005;DHT22;5555;59.622;16.556;2023-02-19T11:22:45;3.00;99.90
11005;DHT22;5555;59.622;16.556;2023-02-19T11:27:59;3.00;99.90
11005;DHT22;5555;59.622;16.556;2023-02-19T11:30:44;3.00;99.90
11005;DHT22;5555;59.622;16.556;2023-02-19T11:35:47;3.10;99.90
11005;DHT22;5555;59.622;16.556;2023-02-19T11:38:15;3.40;99.90
11005;DHT22;5555;59.622;16.556;2023-02-19T11:54:58;3.20;99.90
11005;DHT22;5555;59.622;16.556;2023-02-19T12:11:24;3.80;99.90
11005;DHT22;5555;59.622;16.556;2023-02-19T12:16:53;3.90;99.90
11005;DHT22;5555;59.622;16.556;2023-02-19T12:22:29;3.80;99.90
11005;DHT22;5555;59.622;16.556;2023-02-19T12:27:48;4.10;99.90
11005;DHT22;5555;59.622;16.556;2023-02-19T12:36:18;4.30;99.90
11005;DHT22;5555;59.622;16.556;2023-02-19T12:44:49;4.60;99.90
11005;DHT22;5555;59.622;16.556;2023-02-19T12:47:23;4.80;99.90
11005;DHT22;5555;59.622;16.556;2023-02-19T12:52:40;4.80;99.80
11005;DHT22;5555;59.622;16.556;2023-02-19T12:55:21;4.70;99.40
11005;DHT22;5555;59.622;16.556;2023-02-19T12:57:50;4.90;99.20
11005;DHT22;5555;59.622;16.556;2023-02-19T13:00:28;4.70;99.70
11005;DHT22;5555;59.622;16.556;2023-02-19T13:03:02;5.20;99.30
11005;DHT22;5555;59.622;16.556;2023-02-19T13:05:43;5.50;99.00
11005;DHT22;5555;59.622;16.556;2023-02-19T13:11:00;5.10;98.30
11005;DHT22;5555;59.622;16.556;2023-02-19T13:13:37;5.00;98.50
11005;DHT22;5555;59.622;16.556;2023-02-19T13:16:09;5.40;98.40
11005;DHT22;5555;59.622;16.556;2023-02-19T13:21:13;4.80;98.50
11005;DHT22;5555;59.622;16.556;2023-02-19T13:24:05;5.20;98.10
11005;DHT22;5555;59.622;16.556;2023-02-19T13:26:52;5.40;98.20
11005;DHT22;5555;59.622;16.556;2023-02-19T13:38:14;5.20;97.70
11005;DHT22;5555;59.622;16.556;2023-02-19T13:40:41;5.50;97.50
11005;DHT22;5555;59.622;16.556;2023-02-19T13:43:25;5.30;97.50
11005;DHT22;5555;59.622;16.556;2023-02-19T13:45:58;5.30;97.60
11005;DHT22;5555;59.622;16.556;2023-02-19T13:48:28;5.20;97.40
11005;DHT22;5555;59.622;16.556;2023-02-19T14:04:59;5.00;97.50
11005;DHT22;5555;59.622;16.556;2023-02-19T14:09:51;5.40;97.90
11005;DHT22;5555;59.622;16.556;2023-02-19T14:12:20;5.80;97.70
11005;DHT22;5555;59.622;16.556;2023-02-19T14:14:51;5.50;97.30
11005;DHT22;5555;59.622;16.556;2023-02-19T14:17:37;5.30;97.30
11005;DHT22;5555;59.622;16.556;2023-02-19T14:25:40;4.10;98.60
11005;DHT22;5555;59.622;16.556;2023-02-19T14:30:56;4.40;98.90
11005;DHT22;5555;59.622;16.556;2023-02-19T14:39:00;4.40;98.90
11005;DHT22;5555;59.622;16.556;2023-02-19T14:41:27;4.10;98.80
11005;DHT22;5555;59.622;16.556;2023-02-19T14:43:55;3.90;99.20
11005;DHT22;5555;59.622;16.556;2023-02-19T14:48:54;4.00;99.10
11005;DHT22;5555;59.622;16.556;2023-02-19T14:51:36;4.00;99.20
11005;DHT22;5555;59.622;16.556;2023-02-19T14:57:01;4.10;99.20
11005;DHT22;5555;59.622;16.556;2023-02-19T14:59:28;3.90;99.30
11005;DHT22;5555;59.622;16.556;2023-02-19T15:02:00;3.80;99.40
11005;DHT22;5555;59.622;16.556;2023-02-19T15:04:34;4.00;99.40
11005;DHT22;5555;59.622;16.556;2023-02-19T15:07:05;4.20;99.40
11005;DHT22;5555;59.622;16.556;2023-02-19T15:09:35;4.00;99.10
11005;DHT22;5555;59.622;16.556;2023-02-19T15:12:02;4.30;99.30
11005;DHT22;5555;59.622;16.556;2023-02-19T15:14:29;4.20;99.10
11005;DHT22;5555;59.622;16.556;2023-02-19T15:16:59;4.30;99.20
11005;DHT22;5555;59.622;16.556;2023-02-19T15:19:26;4.30;99.00
11005;DHT22;5555;59.622;16.556;2023-02-19T15:21:52;4.10;99.10
11005;DHT22;5555;59.622;16.556;2023-02-19T15:24:19;4.20;99.20
11005;DHT22;5555;59.622;16.556;2023-02-19T15:26:50;4.00;99.40
11005;DHT22;5555;59.622;16.556;2023-02-19T15:29:21;3.30;99.80
11005;DHT22;5555;59.622;16.556;2023-02-19T15:31:52;2.70;99.90
11005;DHT22;5555;59.622;16.556;2023-02-19T15:34:27;2.40;99.90
11005;DHT22;5555;59.622;16.556;2023-02-19T15:37:19;2.30;99.90
11005;DHT22;5555;59.622;16.556;2023-02-19T15:39:47;2.10;99.90
11005;DHT22;5555;59.622;16.556;2023-02-19T15:42:23;2.10;99.90
11005;DHT22;5555;59.622;16.556;2023-02-19T15:50:23;1.90;99.90
11005;DHT22;5555;59.622;16.556;2023-02-19T15:55:40;1.80;99.90
11005;DHT22;5555;59.622;16.556;2023-02-19T15:58:20;1.80;99.90
11005;DHT22;5555;59.622;16.556;2023-02-19T16:03:20;1.60;99.90
11005;DHT22;5555;59.622;16.556;2023-02-19T16:05:58;1.50;99.90
11005;DHT22;5555;59.622;16.556;2023-02-19T16:08:31;1.50;99.90
11005;DHT22;5555;59.622;16.556;2023-02-19T16:11:00;1.40;99.90
11005;DHT22;5555;59.622;16.556;2023-02-19T16:13:28;1.30;99.90
11005;DHT22;5555;59.622;16.556;2023-02-19T16:16:01;1.30;99.90
11005;DHT22;5555;59.622;16.556;2023-02-19T16:18:27;1.20;99.90
11005;DHT22;5555;59.622;16.556;2023-02-19T16:20:53;1.20;99.90
11005;DHT22;5555;59.622;16.556;2023-02-19T16:23:20;1.10;99.90
11005;DHT22;5555;59.622;16.556;2023-02-19T16:25:56;1.00;99.90
11005;DHT22;5555;59.622;16.556;2023-02-19T16:28:24;1.10;99.90
11005;DHT22;5555;59.622;16.556;2023-02-19T16:31:01;1.10;99.90
11005;DHT22;5555;59.622;16.556;2023-02-19T16:33:44;1.10;99.90
11005;DHT22;5555;59.622;16.556;2023-02-19T16:41:27;0.90;99.90
11005;DHT22;5555;59.622;16.556;2023-02-19T16:43:52;0.90;99.90
11005;DHT22;5555;59.622;16.556;2023-02-19T16:46:18;0.90;99.90
11005;DHT22;5555;59.622;16.556;2023-02-19T16:48:44;0.90;99.90
11005;DHT22;5555;59.622;16.556;2023-02-19T16:51:16;0.80;99.90
11005;DHT22;5555;59.622;16.556;2023-02-19T16:53:46;0.70;99.90
11005;DHT22;5555;59.622;16.556;2023-02-19T16:56:16;0.70;99.90
11005;DHT22;5555;59.622;16.556;2023-02-19T16:58:48;0.70;99.90
11005;DHT22;5555;59.622;16.556;2023-02-19T17:01:14;0.70;99.90
11005;DHT22;5555;59.622;16.556;2023-02-19T17:03:39;0.60;99.90
11005;DHT22;5555;59.622;16.556;2023-02-19T17:06:05;0.60;99.90
11005;DHT22;5555;59.622;16.556;2023-02-19T17:08:33;0.50;99.90
11005;DHT22;5555;59.622;16.556;2023-02-19T17:11:03;0.50;99.90
11005;DHT22;5555;59.622;16.556;2023-02-19T17:13:29;0.50;99.90
11005;DHT22;5555;59.622;16.556;2023-02-19T17:15:56;0.50;99.90
11005;DHT22;5555;59.622;16.556;2023-02-19T17:18:22;0.40;99.90
11005;DHT22;5555;59.622;16.556;2023-02-19T17:21:26;0.40;99.90
11005;DHT22;5555;59.622;16.556;2023-02-19T17:23:52;0.30;99.90
11005;DHT22;5555;59.622;16.556;2023-02-19T17:26:29;0.30;99.90
11005;DHT22;5555;59.622;16.556;2023-02-19T17:28:59;0.30;99.90
11005;DHT22;5555;59.622;16.556;2023-02-19T17:31:25;0.30;99.90
11005;DHT22;5555;59.622;16.556;2023-02-19T17:33:51;0.30;99.90
11005;DHT22;5555;59.622;16.556;2023-02-19T17:36:28;0.20;99.90
11005;DHT22;5555;59.622;16.556;2023-02-19T17:38:56;0.20;99.90
11005;DHT22;5555;59.622;16.556;2023-02-19T17:41:22;0.10;99.90
11005;DHT22;5555;59.622;16.556;2023-02-19T17:43:47;0.10;99.90
11005;DHT22;5555;59.622;16.556;2023-02-19T17:46:19;0.10;99.90
11005;DHT22;5555;59.622;16.556;2023-02-19T17:48:45;0.00;99.90
11005;DHT22;5555;59.622;16.556;2023-02-19T17:51:12;0.00;99.90
11005;DHT22;5555;59.622;16.556;2023-02-19T17:53:37;0.00;99.90
11005;DHT22;5555;59.622;16.556;2023-02-19T17:56:03;0.00;99.90
11005;DHT22;5555;59.622;16.556;2023-02-19T17:58:29;0.00;99.90
11005;DHT22;5555;59.622;16.556;2023-02-19T18:00:55;-0.10;99.90
11005;DHT22;5555;59.622;16.556;2023-02-19T18:03:20;-0.10;99.90
11005;DHT22;5555;59.622;16.556;2023-02-19T18:05:46;-0.20;99.90
11005;DHT22;5555;59.622;16.556;2023-02-19T18:08:12;-0.20;99.90
11005;DHT22;5555;59.622;16.556;2023-02-19T18:10:38;-0.20;99.90
11005;DHT22;5555;59.622;16.556;2023-02-19T18:13:04;-0.20;99.90
11005;DHT22;5555;59.622;16.556;2023-02-19T18:15:29;-0.20;99.90
11005;DHT22;5555;59.622;16.556;2023-02-19T18:17:55;-0.20;99.90
11005;DHT22;5555;59.622;16.556;2023-02-19T18:20:26;-0.20;99.90
11005;DHT22;5555;59.622;16.556;2023-02-19T18:22:53;-0.20;99.90
11005;DHT22;5555;59.622;16.556;2023-02-19T18:25:19;-0.20;99.90
11005;DHT22;5555;59.622;16.556;2023-02-19T18:27:46;-0.20;99.90